createdAt,value
2017-12-10T00:00:54.057Z,1003
2017-12-10T00:02:03.067Z,1002.96
2017-12-10T00:03:12.270Z,1002.94
2017-12-10T00:04:22.011Z,1002.89
2017-12-10T00:05:30.957Z,1002.81
2017-12-10T00:06:40.429Z,1002.87
2017-12-10T00:07:49.635Z,1002.82
2017-12-10T00:08:58.584Z,1002.84
2017-12-10T00:10:07.531Z,1002.79
2017-12-10T00:11:16.478Z,1002.74
2017-12-10T00:12:25.437Z,1002.72
2017-12-10T00:13:34.378Z,1002.76
2017-12-10T00:14:43.064Z,1002.7
2017-12-10T00:15:52.266Z,1002.73
2017-12-10T00:17:02.279Z,1002.68
2017-12-10T00:18:11.753Z,1002.65
2017-12-10T00:19:20.685Z,1002.57
2017-12-10T00:20:29.370Z,1002.56
2017-12-10T00:21:38.585Z,1002.54
2017-12-10T00:22:47.806Z,1002.5
2017-12-10T00:23:57.008Z,1002.43
2017-12-10T00:25:06.741Z,1002.4
2017-12-10T00:26:15.946Z,1002.37
2017-12-10T00:27:24.904Z,1002.35
2017-12-10T00:28:34.114Z,1002.42
2017-12-10T00:29:43.324Z,1002.3
2017-12-10T00:30:52.012Z,1002.24
2017-12-10T00:32:00.964Z,1002.23
2017-12-10T00:33:09.909Z,1002.26
2017-12-10T00:34:18.708Z,1002.26
2017-12-10T00:35:27.657Z,1002.19
2017-12-10T00:36:36.905Z,1002.22
2017-12-10T00:37:45.865Z,1002.19
2017-12-10T00:38:54.593Z,1002.12
2017-12-10T00:40:03.804Z,1002.1
2017-12-10T00:41:12.746Z,1002.08
2017-12-10T00:42:22.069Z,1002.05
2017-12-10T00:43:30.749Z,1002.05
2017-12-10T00:44:40.276Z,1001.97
2017-12-10T00:45:49.517Z,1001.97
2017-12-10T00:46:58.817Z,1001.97
2017-12-10T00:48:07.512Z,1001.88
2017-12-10T00:49:16.468Z,1001.84
2017-12-10T00:50:26.238Z,1001.8
2017-12-10T00:51:35.330Z,1001.82
2017-12-10T00:52:45.103Z,1001.74
2017-12-10T00:53:54.593Z,1001.71
2017-12-10T00:55:03.596Z,1001.74
2017-12-10T00:56:13.079Z,1001.78
2017-12-10T00:57:22.293Z,1001.7
2017-12-10T00:58:31.244Z,1001.63
2017-12-10T00:59:40.561Z,1001.65
2017-12-10T01:00:49.767Z,1001.65
2017-12-10T01:01:58.995Z,1001.61
2017-12-10T01:03:07.997Z,1001.6
2017-12-10T01:04:16.909Z,1001.61
2017-12-10T01:05:25.577Z,1001.6
2017-12-10T01:06:35.052Z,1001.61
2017-12-10T01:07:44.009Z,1001.57
2017-12-10T01:08:52.952Z,1001.49
2017-12-10T01:10:02.191Z,1001.55
2017-12-10T01:11:11.155Z,1001.55
2017-12-10T01:12:19.839Z,1001.47
2017-12-10T01:13:29.074Z,1001.5
2017-12-10T01:14:38.003Z,1001.43
2017-12-10T01:15:47.209Z,1001.4
2017-12-10T01:16:56.421Z,1001.36
2017-12-10T01:18:05.893Z,1001.37
2017-12-10T01:19:14.570Z,1001.28
2017-12-10T01:20:23.789Z,1001.27
2017-12-10T01:21:33.005Z,1001.28
2017-12-10T01:22:41.946Z,1001.3
2017-12-10T01:23:51.148Z,1001.3
2017-12-10T01:25:00.105Z,1001.29
2017-12-10T01:26:09.051Z,1001.22
2017-12-10T01:27:18.803Z,1001.3
2017-12-10T01:28:28.035Z,1001.19
2017-12-10T01:29:37.266Z,1001.14
2017-12-10T01:30:47.281Z,1001.16
2017-12-10T01:31:56.256Z,1001.06
2017-12-10T01:33:05.196Z,1001.05
2017-12-10T01:34:14.410Z,1000.96
2017-12-10T01:35:23.890Z,1000.9
2017-12-10T01:36:33.085Z,1000.91
2017-12-10T01:37:42.628Z,1000.88
2017-12-10T01:38:51.574Z,1000.85
2017-12-10T01:40:01.050Z,1000.85
2017-12-10T01:41:10.829Z,1000.87
2017-12-10T01:42:20.556Z,1000.82
2017-12-10T01:43:29.490Z,1000.88
2017-12-10T01:44:38.961Z,1000.86
2017-12-10T01:45:48.168Z,1000.87
2017-12-10T01:46:57.380Z,1000.86
2017-12-10T01:48:06.058Z,1000.86
2017-12-10T01:49:15.269Z,1000.84
2017-12-10T01:50:24.230Z,1000.85
2017-12-10T01:51:33.185Z,1000.83
2017-12-10T01:52:42.145Z,1000.78
2017-12-10T01:53:51.125Z,1000.77
2017-12-10T01:55:00.409Z,1000.73
2017-12-10T01:56:09.083Z,1000.7
2017-12-10T01:57:18.271Z,1000.69
2017-12-10T01:58:27.518Z,1000.59
2017-12-10T01:59:36.735Z,1000.51
2017-12-10T02:00:45.974Z,1000.51
2017-12-10T02:01:55.187Z,1000.56
2017-12-10T02:03:04.400Z,1000.49
2017-12-10T02:04:13.909Z,1000.5
2017-12-10T02:05:22.854Z,1000.49
2017-12-10T02:06:32.063Z,1000.38
2017-12-10T02:07:41.010Z,1000.42
2017-12-10T02:08:50.244Z,1000.42
2017-12-10T02:09:59.193Z,1000.36
2017-12-10T02:11:08.134Z,1000.28
2017-12-10T02:12:17.609Z,1000.15
2017-12-10T02:13:26.559Z,1000.16
2017-12-10T02:14:35.803Z,1000.11
2017-12-10T02:15:44.475Z,1000.03
2017-12-10T02:16:53.693Z,1000.01
2017-12-10T02:18:02.619Z,999.92
2017-12-10T02:19:12.347Z,999.89
2017-12-10T02:20:21.299Z,999.83
2017-12-10T02:21:30.249Z,999.8
2017-12-10T02:22:39.257Z,999.84
2017-12-10T02:23:48.738Z,999.78
2017-12-10T02:24:57.956Z,999.78
2017-12-10T02:26:06.896Z,999.71
2017-12-10T02:27:15.842Z,999.7
2017-12-10T02:28:24.540Z,999.66
2017-12-10T02:29:33.768Z,999.68
2017-12-10T02:30:42.973Z,999.6
2017-12-10T02:31:51.689Z,999.56
2017-12-10T02:33:00.633Z,999.53
2017-12-10T02:34:10.097Z,999.53
2017-12-10T02:35:19.314Z,999.48
2017-12-10T02:36:28.538Z,999.44
2017-12-10T02:37:38.000Z,999.42
2017-12-10T02:38:47.226Z,999.42
2017-12-10T02:39:56.957Z,999.36
2017-12-10T02:41:06.438Z,999.25
2017-12-10T02:42:16.027Z,999.23
2017-12-10T02:43:25.762Z,999.26
2017-12-10T02:44:34.723Z,999.2
2017-12-10T02:45:43.942Z,999.14
2017-12-10T02:46:53.928Z,999.15
2017-12-10T02:48:03.404Z,999.04
2017-12-10T02:49:12.093Z,999.04
2017-12-10T02:50:20.780Z,999
2017-12-10T02:51:29.734Z,999.03
2017-12-10T02:52:38.661Z,998.95
2017-12-10T02:53:47.348Z,998.96
2017-12-10T02:54:56.291Z,998.85
2017-12-10T02:56:05.760Z,998.86
2017-12-10T02:57:15.252Z,998.84
2017-12-10T02:58:23.932Z,998.83
2017-12-10T02:59:33.407Z,998.83
2017-12-10T03:00:42.901Z,998.85
2017-12-10T03:01:51.892Z,998.82
2017-12-10T03:03:00.568Z,998.79
2017-12-10T03:04:10.041Z,998.8
2017-12-10T03:05:19.250Z,998.84
2017-12-10T03:06:28.227Z,998.83
2017-12-10T03:07:37.688Z,998.78
2017-12-10T03:08:46.631Z,998.77
2017-12-10T03:09:56.099Z,998.7
2017-12-10T03:11:04.808Z,998.64
2017-12-10T03:12:14.286Z,998.64
2017-12-10T03:13:23.242Z,998.55
2017-12-10T03:14:32.719Z,998.51
2017-12-10T03:15:41.679Z,998.54
2017-12-10T03:16:51.687Z,998.48
2017-12-10T03:18:01.171Z,998.44
2017-12-10T03:19:10.636Z,998.36
2017-12-10T03:20:20.124Z,998.33
2017-12-10T03:21:29.923Z,998.32
2017-12-10T03:22:38.865Z,998.29
2017-12-10T03:23:48.856Z,998.23
2017-12-10T03:24:58.838Z,998.19
2017-12-10T03:26:08.327Z,998.17
2017-12-10T03:27:17.800Z,998.15
2017-12-10T03:28:26.752Z,998.09
2017-12-10T03:29:35.709Z,998.09
2017-12-10T03:30:45.181Z,998.06
2017-12-10T03:31:54.401Z,998.01
2017-12-10T03:33:03.354Z,998.02
2017-12-10T03:34:12.071Z,997.96
2017-12-10T03:35:21.571Z,997.85
2017-12-10T03:36:30.247Z,997.87
2017-12-10T03:37:39.200Z,997.78
2017-12-10T03:38:48.144Z,997.75
2017-12-10T03:39:56.827Z,997.71
2017-12-10T03:41:06.293Z,997.7
2017-12-10T03:42:15.234Z,997.64
2017-12-10T03:43:24.450Z,997.65
2017-12-10T03:44:33.648Z,997.62
2017-12-10T03:45:42.592Z,997.57
2017-12-10T03:46:52.363Z,997.57
2017-12-10T03:48:01.316Z,997.6
2017-12-10T03:49:10.524Z,997.56
2017-12-10T03:50:19.202Z,997.5
2017-12-10T03:51:28.242Z,997.5
2017-12-10T03:52:36.932Z,997.47
2017-12-10T03:53:46.141Z,997.44
2017-12-10T03:54:55.081Z,997.43
2017-12-10T03:56:04.586Z,997.39
2017-12-10T03:57:13.790Z,997.43
2017-12-10T03:58:22.468Z,997.38
2017-12-10T03:59:31.948Z,997.35
2017-12-10T04:00:41.169Z,997.3
2017-12-10T04:01:50.639Z,997.25
2017-12-10T04:03:00.108Z,997.18
2017-12-10T04:04:09.324Z,997.15
2017-12-10T04:05:18.005Z,997.1
2017-12-10T04:06:27.473Z,997.02
2017-12-10T04:07:36.689Z,997.02
2017-12-10T04:08:45.638Z,996.93
2017-12-10T04:09:54.861Z,996.93
2017-12-10T04:11:03.817Z,996.93
2017-12-10T04:12:13.289Z,996.91
2017-12-10T04:13:22.748Z,996.89
2017-12-10T04:14:31.962Z,996.9
2017-12-10T04:15:40.668Z,996.86
2017-12-10T04:16:49.625Z,996.84
2017-12-10T04:17:59.116Z,996.82
2017-12-10T04:19:08.310Z,996.82
2017-12-10T04:20:17.527Z,996.8
2017-12-10T04:21:26.992Z,996.79
2017-12-10T04:22:36.181Z,996.78
2017-12-10T04:23:45.182Z,996.8
2017-12-10T04:24:54.131Z,996.72
2017-12-10T04:26:03.068Z,996.69
2017-12-10T04:27:12.283Z,996.65
2017-12-10T04:28:21.493Z,996.66
2017-12-10T04:29:30.696Z,996.59
2017-12-10T04:30:39.905Z,996.55
2017-12-10T04:31:49.387Z,996.53
2017-12-10T04:32:58.601Z,996.5
2017-12-10T04:34:08.068Z,996.53
2017-12-10T04:35:17.003Z,996.49
2017-12-10T04:36:25.948Z,996.44
2017-12-10T04:37:34.881Z,996.43
2017-12-10T04:38:44.083Z,996.44
2017-12-10T04:39:53.018Z,996.39
2017-12-10T04:41:02.223Z,996.4
2017-12-10T04:42:11.754Z,996.37
2017-12-10T04:43:21.750Z,996.35
2017-12-10T04:44:30.710Z,996.29
2017-12-10T04:45:39.668Z,996.32
2017-12-10T04:46:48.613Z,996.27
2017-12-10T04:47:58.093Z,996.23
2017-12-10T04:49:07.564Z,996.22
2017-12-10T04:50:16.776Z,996.17
2017-12-10T04:51:26.264Z,996.14
2017-12-10T04:52:35.218Z,996.1
2017-12-10T04:53:44.267Z,996.02
2017-12-10T04:54:53.467Z,995.89
2017-12-10T04:56:02.937Z,995.92
2017-12-10T04:57:12.431Z,995.81
2017-12-10T04:58:21.108Z,995.77
2017-12-10T04:59:30.310Z,995.7
2017-12-10T05:00:39.519Z,995.67
2017-12-10T05:01:48.998Z,995.62
2017-12-10T05:02:58.214Z,995.55
2017-12-10T05:04:07.171Z,995.53
2017-12-10T05:05:16.373Z,995.51
2017-12-10T05:06:25.840Z,995.41
2017-12-10T05:07:35.330Z,995.36
2017-12-10T05:08:45.330Z,995.35
2017-12-10T05:09:54.268Z,995.26
2017-12-10T05:11:03.483Z,995.25
2017-12-10T05:12:12.693Z,995.19
2017-12-10T05:13:21.895Z,995.11
2017-12-10T05:14:31.104Z,995.05
2017-12-10T05:15:40.040Z,995.11
2017-12-10T05:16:48.978Z,995.08
2017-12-10T05:17:57.918Z,995
2017-12-10T05:19:06.887Z,995.01
2017-12-10T05:20:16.403Z,995
2017-12-10T05:21:25.326Z,994.95
2017-12-10T05:22:34.783Z,994.93
2017-12-10T05:23:43.989Z,994.92
2017-12-10T05:24:53.200Z,994.83
2017-12-10T05:26:02.135Z,994.79
2017-12-10T05:27:11.342Z,994.8
2017-12-10T05:28:20.345Z,994.77
2017-12-10T05:29:29.549Z,994.68
2017-12-10T05:30:38.503Z,994.61
2017-12-10T05:31:47.465Z,994.56
2017-12-10T05:32:56.676Z,994.47
2017-12-10T05:34:06.163Z,994.47
2017-12-10T05:35:15.131Z,994.42
2017-12-10T05:36:24.347Z,994.32
2017-12-10T05:37:33.548Z,994.31
2017-12-10T05:38:42.510Z,994.27
2017-12-10T05:39:51.488Z,994.25
2017-12-10T05:41:00.186Z,994.13
2017-12-10T05:42:09.408Z,994.11
2017-12-10T05:43:18.872Z,994.12
2017-12-10T05:44:27.818Z,994.07
2017-12-10T05:45:36.499Z,993.99
2017-12-10T05:46:45.175Z,993.96
2017-12-10T05:47:54.113Z,993.93
2017-12-10T05:49:03.578Z,993.93
2017-12-10T05:50:12.524Z,993.91
2017-12-10T05:51:21.203Z,993.87
2017-12-10T05:52:30.667Z,993.86
2017-12-10T05:53:39.878Z,993.8
2017-12-10T05:54:48.824Z,993.78
2017-12-10T05:55:58.018Z,993.7
2017-12-10T05:57:07.239Z,993.67
2017-12-10T05:58:16.182Z,993.64
2017-12-10T05:59:25.184Z,993.59
2017-12-10T06:00:34.154Z,993.59
2017-12-10T06:01:43.623Z,993.49
2017-12-10T06:02:52.307Z,993.54
2017-12-10T06:04:01.783Z,993.4
2017-12-10T06:05:11.009Z,993.32
2017-12-10T06:06:20.775Z,993.28
2017-12-10T06:07:29.724Z,993.23
2017-12-10T06:08:38.670Z,993.15
2017-12-10T06:09:47.372Z,993.09
2017-12-10T06:10:56.317Z,993.05
2017-12-10T06:12:05.246Z,992.95
2017-12-10T06:13:14.454Z,993
2017-12-10T06:14:23.648Z,992.96
2017-12-10T06:15:32.866Z,992.94
2017-12-10T06:16:42.377Z,992.97
2017-12-10T06:17:51.586Z,992.91
2017-12-10T06:19:00.540Z,992.86
2017-12-10T06:20:09.522Z,992.72
2017-12-10T06:21:18.460Z,992.66
2017-12-10T06:22:27.665Z,992.65
2017-12-10T06:23:36.604Z,992.7
2017-12-10T06:24:46.068Z,992.58
2017-12-10T06:25:55.016Z,992.53
2017-12-10T06:27:04.217Z,992.44
2017-12-10T06:28:13.455Z,992.39
2017-12-10T06:29:22.929Z,992.4
2017-12-10T06:30:32.160Z,992.42
2017-12-10T06:31:41.357Z,992.35
2017-12-10T06:32:50.554Z,992.27
2017-12-10T06:33:59.236Z,992.24
2017-12-10T06:35:08.183Z,992.25
2017-12-10T06:36:17.251Z,992.28
2017-12-10T06:37:26.466Z,992.22
2017-12-10T06:38:35.410Z,992.24
2017-12-10T06:39:44.386Z,992.18
2017-12-10T06:40:53.076Z,992.14
2017-12-10T06:42:01.795Z,992.14
2017-12-10T06:43:11.280Z,992.03
2017-12-10T06:44:20.502Z,991.97
2017-12-10T06:45:29.987Z,992.03
2017-12-10T06:46:39.199Z,991.96
2017-12-10T06:47:48.399Z,991.94
2017-12-10T06:48:57.349Z,991.85
2017-12-10T06:50:06.292Z,991.81
2017-12-10T06:51:15.516Z,991.75
2017-12-10T06:52:25.250Z,991.73
2017-12-10T06:53:34.466Z,991.7
2017-12-10T06:54:43.672Z,991.7
2017-12-10T06:55:52.629Z,991.6
2017-12-10T06:57:02.130Z,991.51
2017-12-10T06:58:11.339Z,991.45
2017-12-10T06:59:20.565Z,991.45
2017-12-10T07:00:29.774Z,991.44
2017-12-10T07:01:38.975Z,991.39
2017-12-10T07:02:48.189Z,991.36
2017-12-10T07:03:57.911Z,991.31
2017-12-10T07:05:06.891Z,991.28
2017-12-10T07:06:15.887Z,991.28
2017-12-10T07:07:25.092Z,991.19
2017-12-10T07:08:34.101Z,991.1
2017-12-10T07:09:43.057Z,991.05
2017-12-10T07:10:52.026Z,990.97
2017-12-10T07:12:00.712Z,990.93
2017-12-10T07:13:09.911Z,990.86
2017-12-10T07:14:18.860Z,990.9
2017-12-10T07:15:27.557Z,990.89
2017-12-10T07:16:37.016Z,990.81
2017-12-10T07:17:46.505Z,990.77
2017-12-10T07:18:55.180Z,990.65
2017-12-10T07:20:04.651Z,990.71
2017-12-10T07:21:13.616Z,990.66
2017-12-10T07:22:22.832Z,990.56
2017-12-10T07:23:32.057Z,990.58
2017-12-10T07:24:41.804Z,990.47
2017-12-10T07:25:51.540Z,990.43
2017-12-10T07:27:00.489Z,990.44
2017-12-10T07:28:10.250Z,990.4
2017-12-10T07:29:20.019Z,990.37
2017-12-10T07:30:29.498Z,990.3
2017-12-10T07:31:38.200Z,990.25
2017-12-10T07:32:46.905Z,990.31
2017-12-10T07:33:55.841Z,990.22
2017-12-10T07:35:04.535Z,990.14
2017-12-10T07:36:14.260Z,990.03
2017-12-10T07:37:23.200Z,990.07
2017-12-10T07:38:32.738Z,990.01
2017-12-10T07:39:41.968Z,989.86
2017-12-10T07:40:50.925Z,989.86
2017-12-10T07:41:59.899Z,989.84
2017-12-10T07:43:09.519Z,989.81
2017-12-10T07:44:18.473Z,989.77
2017-12-10T07:45:27.676Z,989.78
2017-12-10T07:46:36.877Z,989.73
2017-12-10T07:47:45.818Z,989.68
2017-12-10T07:48:55.581Z,989.56
2017-12-10T07:50:04.783Z,989.48
2017-12-10T07:51:14.571Z,989.47
2017-12-10T07:52:23.507Z,989.37
2017-12-10T07:53:32.438Z,989.26
2017-12-10T07:54:41.123Z,989.21
2017-12-10T07:55:50.101Z,989.2
2017-12-10T07:56:59.841Z,989.13
2017-12-10T07:58:09.338Z,989.09
2017-12-10T07:59:19.070Z,989.05
2017-12-10T08:00:28.017Z,988.98
2017-12-10T08:01:37.487Z,988.91
2017-12-10T08:02:46.430Z,988.86
2017-12-10T08:03:55.635Z,988.77
2017-12-10T08:05:04.842Z,988.78
2017-12-10T08:06:14.328Z,988.65
2017-12-10T08:07:24.095Z,988.71
2017-12-10T08:08:33.296Z,988.58
2017-12-10T08:09:42.776Z,988.53
2017-12-10T08:10:52.268Z,988.5
2017-12-10T08:12:01.472Z,988.46
2017-12-10T08:13:10.686Z,988.49
2017-12-10T08:14:19.369Z,988.37
2017-12-10T08:15:28.874Z,988.37
2017-12-10T08:16:38.092Z,988.3
2017-12-10T08:17:47.313Z,988.29
2017-12-10T08:18:56.530Z,988.21
2017-12-10T08:20:05.208Z,988.14
2017-12-10T08:21:14.431Z,988.15
2017-12-10T08:22:23.651Z,988.08
2017-12-10T08:23:33.126Z,987.98
2017-12-10T08:24:42.069Z,987.97
2017-12-10T08:25:51.002Z,987.95
2017-12-10T08:26:59.692Z,987.96
2017-12-10T08:28:08.640Z,987.9
2017-12-10T08:29:17.587Z,987.88
2017-12-10T08:30:26.543Z,987.86
2017-12-10T08:31:35.261Z,987.81
2017-12-10T08:32:44.204Z,987.71
2017-12-10T08:33:53.681Z,987.73
2017-12-10T08:35:03.451Z,987.63
2017-12-10T08:36:12.744Z,987.54
2017-12-10T08:37:21.706Z,987.52
2017-12-10T08:38:30.899Z,987.44
2017-12-10T08:39:39.844Z,987.4
2017-12-10T08:40:48.792Z,987.32
2017-12-10T08:41:57.486Z,987.27
2017-12-10T08:43:06.954Z,987.16
2017-12-10T08:44:16.957Z,987.2
2017-12-10T08:45:26.446Z,987.13
2017-12-10T08:46:36.206Z,987.08
2017-12-10T08:47:45.174Z,987.03
2017-12-10T08:48:53.847Z,986.92
2017-12-10T08:50:02.977Z,986.85
2017-12-10T08:51:11.923Z,986.77
2017-12-10T08:52:21.137Z,986.71
2017-12-10T08:53:30.343Z,986.66
2017-12-10T08:54:39.284Z,986.65
2017-12-10T08:55:49.048Z,986.43
2017-12-10T08:56:57.758Z,986.45
2017-12-10T08:58:07.250Z,986.42
2017-12-10T08:59:16.204Z,986.29
2017-12-10T09:00:25.151Z,986.16
2017-12-10T09:01:34.373Z,986.09
2017-12-10T09:02:43.573Z,986.04
2017-12-10T09:03:52.538Z,985.96
2017-12-10T09:05:02.281Z,985.88
2017-12-10T09:06:11.482Z,985.87
2017-12-10T09:07:20.147Z,985.78
2017-12-10T09:08:29.625Z,985.75
2017-12-10T09:09:38.573Z,985.67
2017-12-10T09:10:47.509Z,985.65
2017-12-10T09:11:57.012Z,985.61
2017-12-10T09:13:06.307Z,985.5
2017-12-10T09:14:15.780Z,985.42
2017-12-10T09:15:26.403Z,985.31
2017-12-10T09:16:35.850Z,985.19
2017-12-10T09:17:45.058Z,985.16
2017-12-10T09:18:53.999Z,985.13
2017-12-10T09:20:02.968Z,985.14
2017-12-10T09:21:12.663Z,985.17
2017-12-10T09:22:21.904Z,985.25
2017-12-10T09:23:30.599Z,985.31
2017-12-10T09:24:40.097Z,985.19
2017-12-10T09:25:50.418Z,985.2
2017-12-10T09:27:00.212Z,985.08
2017-12-10T09:28:08.967Z,985.05
2017-12-10T09:29:18.170Z,985.04
2017-12-10T09:30:27.373Z,985.04
2017-12-10T09:31:36.047Z,984.95
2017-12-10T09:32:45.025Z,984.91
2017-12-10T09:33:54.234Z,984.88
2017-12-10T09:35:03.433Z,984.73
2017-12-10T09:36:12.372Z,984.58
2017-12-10T09:37:21.625Z,984.59
2017-12-10T09:38:30.326Z,984.61
2017-12-10T09:39:39.271Z,984.57
2017-12-10T09:40:48.748Z,984.48
2017-12-10T09:41:58.208Z,984.41
2017-12-10T09:43:07.151Z,984.35
2017-12-10T09:44:15.832Z,984.26
2017-12-10T09:45:25.555Z,984.22
2017-12-10T09:46:34.504Z,984.14
2017-12-10T09:47:43.479Z,983.96
2017-12-10T09:48:52.451Z,983.89
2017-12-10T09:50:01.406Z,983.92
2017-12-10T09:51:10.103Z,983.9
2017-12-10T09:52:19.339Z,983.9
2017-12-10T09:53:28.808Z,983.84
2017-12-10T09:54:37.756Z,983.87
2017-12-10T09:55:46.711Z,983.77
2017-12-10T09:56:55.401Z,983.76
2017-12-10T09:58:04.616Z,983.68
2017-12-10T09:59:13.833Z,983.64
2017-12-10T10:00:23.052Z,983.58
2017-12-10T10:01:31.803Z,983.53
2017-12-10T10:02:41.126Z,983.46
2017-12-10T10:03:50.328Z,983.35
2017-12-10T10:04:59.273Z,983.28
2017-12-10T10:06:08.485Z,983.17
2017-12-10T10:07:18.023Z,983.07
2017-12-10T10:08:27.034Z,983.03
2017-12-10T10:09:35.712Z,982.88
2017-12-10T10:10:45.238Z,982.85
2017-12-10T10:11:54.191Z,982.73
2017-12-10T10:13:03.146Z,982.62
2017-12-10T10:14:12.678Z,982.51
2017-12-10T10:15:21.627Z,982.42
2017-12-10T10:16:30.844Z,982.35
2017-12-10T10:17:40.328Z,982.3
2017-12-10T10:18:49.539Z,982.2
2017-12-10T10:19:58.769Z,982.15
2017-12-10T10:21:07.460Z,982.04
2017-12-10T10:22:16.960Z,981.87
2017-12-10T10:23:26.715Z,981.85
2017-12-10T10:24:35.713Z,981.68
2017-12-10T10:25:45.242Z,981.59
2017-12-10T10:26:54.463Z,981.51
2017-12-10T10:28:03.405Z,981.34
2017-12-10T10:29:12.912Z,981.24
2017-12-10T10:30:22.660Z,981.01
2017-12-10T10:31:31.625Z,980.89
2017-12-10T10:32:41.167Z,980.77
2017-12-10T10:33:50.392Z,980.69
2017-12-10T10:34:59.647Z,980.65
2017-12-10T10:36:08.860Z,980.53
2017-12-10T10:37:18.550Z,980.4
2017-12-10T10:38:27.759Z,980.39
2017-12-10T10:39:37.762Z,980.17
2017-12-10T10:40:46.719Z,980.08
2017-12-10T10:41:56.021Z,979.91
2017-12-10T10:43:05.002Z,979.79
2017-12-10T10:44:13.967Z,979.68
2017-12-10T10:45:22.909Z,979.57
2017-12-10T10:46:32.419Z,979.55
2017-12-10T10:47:41.392Z,979.52
2017-12-10T10:48:50.621Z,979.54
2017-12-10T10:49:59.852Z,979.51
2017-12-10T10:51:09.339Z,979.54
2017-12-10T10:52:18.017Z,979.5
2017-12-10T10:53:27.507Z,979.46
2017-12-10T10:54:36.751Z,979.44
2017-12-10T10:55:45.598Z,979.47
2017-12-10T10:56:55.380Z,979.28
2017-12-10T10:58:04.281Z,979.25
2017-12-10T10:59:13.498Z,979.16
2017-12-10T11:00:22.477Z,978.98
2017-12-10T11:01:31.961Z,978.92
2017-12-10T11:02:40.913Z,978.92
2017-12-10T11:03:50.145Z,979.03
2017-12-10T11:04:59.143Z,978.92
2017-12-10T11:06:08.171Z,978.82
2017-12-10T11:07:17.399Z,978.86
2017-12-10T11:08:27.143Z,978.83
2017-12-10T11:09:36.204Z,978.7
2017-12-10T11:10:45.437Z,978.67
2017-12-10T11:11:54.915Z,978.54
2017-12-10T11:13:04.597Z,978.48
2017-12-10T11:14:13.563Z,978.39
2017-12-10T11:15:23.236Z,978.41
2017-12-10T11:16:32.177Z,978.29
2017-12-10T11:17:41.388Z,978.2
2017-12-10T11:18:50.746Z,978.08
2017-12-10T11:19:59.690Z,977.91
2017-12-10T11:21:09.162Z,977.87
2017-12-10T11:22:18.363Z,977.81
2017-12-10T11:23:27.822Z,977.82
2017-12-10T11:24:37.033Z,977.75
2017-12-10T11:25:46.244Z,977.69
2017-12-10T11:26:54.940Z,977.65
2017-12-10T11:28:04.203Z,977.58
2017-12-10T11:29:13.487Z,977.39
2017-12-10T11:30:23.247Z,977.32
2017-12-10T11:31:32.502Z,977.29
2017-12-10T11:32:41.709Z,977.24
2017-12-10T11:33:50.418Z,977.13
2017-12-10T11:34:59.634Z,977.13
2017-12-10T11:36:08.594Z,977.14
2017-12-10T11:37:18.128Z,977.22
2017-12-10T11:38:27.935Z,977.25
2017-12-10T11:39:37.425Z,977.23
2017-12-10T11:40:46.428Z,977.28
2017-12-10T11:41:55.902Z,977.24
2017-12-10T11:43:04.887Z,977.29
2017-12-10T11:44:13.592Z,977.28
2017-12-10T11:45:23.409Z,977.25
2017-12-10T11:46:32.677Z,977.06
2017-12-10T11:47:42.163Z,977.05
2017-12-10T11:48:51.118Z,977.02
2017-12-10T11:50:00.144Z,977.04
2017-12-10T11:51:09.147Z,976.94
2017-12-10T11:52:18.286Z,976.89
2017-12-10T11:53:28.158Z,976.76
2017-12-10T11:54:37.440Z,976.74
2017-12-10T11:55:46.145Z,976.74
2017-12-10T11:56:55.963Z,976.78
2017-12-10T11:58:04.863Z,976.81
2017-12-10T11:59:14.090Z,976.77
2017-12-10T12:00:23.553Z,976.71
2017-12-10T12:01:32.771Z,976.72
2017-12-10T12:02:41.710Z,976.65
2017-12-10T12:03:50.923Z,976.55
2017-12-10T12:05:00.432Z,976.58
2017-12-10T12:06:09.380Z,976.51
2017-12-10T12:07:18.598Z,976.6
2017-12-10T12:08:27.811Z,976.58
2017-12-10T12:09:37.018Z,976.59
2017-12-10T12:10:46.234Z,976.48
2017-12-10T12:11:55.452Z,976.47
2017-12-10T12:13:04.406Z,976.49
2017-12-10T12:14:13.609Z,976.51
2017-12-10T12:15:22.558Z,976.48
2017-12-10T12:16:32.609Z,976.49
2017-12-10T12:17:41.840Z,976.41
2017-12-10T12:18:50.869Z,976.33
2017-12-10T12:20:00.264Z,976.27
2017-12-10T12:21:09.782Z,976.16
2017-12-10T12:22:18.903Z,976.23
2017-12-10T12:23:27.604Z,976.22
2017-12-10T12:24:37.092Z,976.23
2017-12-10T12:25:46.476Z,976.13
2017-12-10T12:26:55.434Z,976.15
2017-12-10T12:28:04.377Z,976.02
2017-12-10T12:29:13.360Z,975.99
2017-12-10T12:30:22.573Z,975.99
2017-12-10T12:31:32.039Z,976.03
2017-12-10T12:32:40.999Z,976
2017-12-10T12:33:50.629Z,976.07
2017-12-10T12:34:59.571Z,976.01
2017-12-10T12:36:08.238Z,976.08
2017-12-10T12:37:17.736Z,976.09
2017-12-10T12:38:26.962Z,976.02
2017-12-10T12:39:36.704Z,975.93
2017-12-10T12:40:45.917Z,976.14
2017-12-10T12:41:54.870Z,976.11
2017-12-10T12:43:04.076Z,976
2017-12-10T12:44:13.801Z,975.89
2017-12-10T12:45:23.014Z,975.91
2017-12-10T12:46:32.223Z,975.8
2017-12-10T12:47:41.187Z,975.47
2017-12-10T12:48:50.686Z,975.38
2017-12-10T12:49:59.630Z,975.23
2017-12-10T12:51:08.316Z,975.36
2017-12-10T12:52:17.534Z,975.27
2017-12-10T12:53:26.480Z,975.14
2017-12-10T12:54:35.970Z,975.21
2017-12-10T12:55:44.926Z,975.24
2017-12-10T12:56:54.188Z,975.18
2017-12-10T12:58:02.883Z,975.23
2017-12-10T12:59:11.826Z,975.13
2017-12-10T13:00:21.142Z,975.17
2017-12-10T13:01:30.108Z,975.07
2017-12-10T13:02:39.086Z,975.05
2017-12-10T13:03:48.281Z,975
2017-12-10T13:04:57.219Z,975.03
2017-12-10T13:06:06.184Z,975.08
2017-12-10T13:07:15.138Z,975.1
2017-12-10T13:08:24.103Z,975.18
2017-12-10T13:09:33.064Z,975
2017-12-10T13:10:42.269Z,974.89
2017-12-10T13:11:51.482Z,974.86
2017-12-10T13:13:00.712Z,974.81
2017-12-10T13:14:09.931Z,974.74
2017-12-10T13:15:19.142Z,974.68
2017-12-10T13:16:28.489Z,974.64
2017-12-10T13:17:37.804Z,974.71
2017-12-10T13:18:47.033Z,974.64
2017-12-10T13:19:55.992Z,974.75
2017-12-10T13:21:06.101Z,974.7
2017-12-10T13:22:15.451Z,974.78
2017-12-10T13:23:24.683Z,974.86
2017-12-10T13:24:35.631Z,974.78
2017-12-10T13:25:44.862Z,974.81
2017-12-10T13:26:54.332Z,974.72
2017-12-10T13:28:03.039Z,974.71
2017-12-10T13:29:12.501Z,974.72
2017-12-10T13:30:21.578Z,974.68
2017-12-10T13:31:30.266Z,974.59
2017-12-10T13:32:39.327Z,974.68
2017-12-10T13:33:48.586Z,974.69
2017-12-10T13:34:58.303Z,974.61
2017-12-10T13:36:07.515Z,974.58
2017-12-10T13:37:16.194Z,974.6
2017-12-10T13:38:25.403Z,974.5
2017-12-10T13:39:35.818Z,974.39
2017-12-10T13:40:44.526Z,974.39
2017-12-10T13:41:55.268Z,974.27
2017-12-10T13:43:05.132Z,974.25
2017-12-10T13:44:14.343Z,974.22
2017-12-10T13:45:23.649Z,974.14
2017-12-10T13:46:32.867Z,974.09
2017-12-10T13:47:42.445Z,974.08
2017-12-10T13:48:52.687Z,973.99
2017-12-10T13:50:02.709Z,973.89
2017-12-10T13:51:12.427Z,973.94
2017-12-10T13:52:21.264Z,973.91
2017-12-10T13:53:29.975Z,973.74
2017-12-10T13:54:39.242Z,973.77
2017-12-10T13:55:48.768Z,973.81
2017-12-10T13:56:57.946Z,973.76
2017-12-10T13:58:08.134Z,973.75
2017-12-10T13:59:17.337Z,973.69
2017-12-10T14:00:26.282Z,973.7
2017-12-10T14:01:35.529Z,973.66
2017-12-10T14:02:44.217Z,973.61
2017-12-10T14:03:53.432Z,973.65
2017-12-10T14:05:03.080Z,973.54
2017-12-10T14:06:13.347Z,973.65
2017-12-10T14:07:22.667Z,973.61
2017-12-10T14:08:32.143Z,973.67
2017-12-10T14:09:41.459Z,973.59
2017-12-10T14:10:50.862Z,973.55
2017-12-10T14:12:00.073Z,973.54
2017-12-10T14:13:09.318Z,973.58
2017-12-10T14:14:18.544Z,973.56
2017-12-10T14:15:28.302Z,973.46
2017-12-10T14:16:38.064Z,973.45
2017-12-10T14:17:47.535Z,973.45
2017-12-10T14:18:56.508Z,973.41
2017-12-10T14:20:05.463Z,973.39
2017-12-10T14:21:14.174Z,973.42
2017-12-10T14:22:23.396Z,973.36